sensor_id;sensor_type;location;lat;lon;timestamp;pressure;altitude;pressure_sealevel;temperature;humidity
66547;BME280;53400;50.364;14.874;2023-09-07T00:01:46;99382.38;;;16.12;93.41
66547;BME280;53400;50.364;14.874;2023-09-07T00:04:13;99381.69;;;16.32;91.04
66547;BME280;53400;50.364;14.874;2023-09-07T00:06:41;99382.84;;;16.61;90.57
66547;BME280;53400;50.364;14.874;2023-09-07T00:09:10;99380.06;;;16.36;91.81
66547;BME280;53400;50.364;14.874;2023-09-07T00:11:37;99390.88;;;15.88;92.96
66547;BME280;53400;50.364;14.874;2023-09-07T00:14:04;99390.63;;;16.37;93.24
66547;BME280;53400;50.364;14.874;2023-09-07T00:16:31;99384.63;;;16.30;90.70
66547;BME280;53400;50.364;14.874;2023-09-07T00:19:00;99385.97;;;16.22;92.41
66547;BME280;53400;50.364;14.874;2023-09-07T00:21:26;99383.31;;;16.38;91.87
66547;BME280;53400;50.364;14.874;2023-09-07T00:23:54;99383.06;;;16.44;92.37
66547;BME280;53400;50.364;14.874;2023-09-07T00:26:21;99383.31;;;16.38;91.78
66547;BME280;53400;50.364;14.874;2023-09-07T00:28:47;99385.16;;;16.27;93.14
66547;BME280;53400;50.364;14.874;2023-09-07T00:31:14;99393.31;;;16.32;93.30
66547;BME280;53400;50.364;14.874;2023-09-07T00:33:41;99392.66;;;16.15;94.21
66547;BME280;53400;50.364;14.874;2023-09-07T00:36:07;99387.78;;;16.12;94.80
66547;BME280;53400;50.364;14.874;2023-09-07T00:38:33;99385.56;;;16.03;95.03
66547;BME280;53400;50.364;14.874;2023-09-07T00:41:01;99390.69;;;16.00;96.06
66547;BME280;53400;50.364;14.874;2023-09-07T00:43:28;99382.06;;;16.03;95.89
66547;BME280;53400;50.364;14.874;2023-09-07T00:45:56;99383.34;;;15.90;97.11
66547;BME280;53400;50.364;14.874;2023-09-07T00:48:22;99386.53;;;15.77;97.14
66547;BME280;53400;50.364;14.874;2023-09-07T00:50:49;99383.31;;;15.85;97.33
66547;BME280;53400;50.364;14.874;2023-09-07T00:53:16;99380.41;;;15.92;96.57
66547;BME280;53400;50.364;14.874;2023-09-07T00:55:44;99375.53;;;15.94;94.91
66547;BME280;53400;50.364;14.874;2023-09-07T00:58:12;99383.63;;;15.94;94.58
66547;BME280;53400;50.364;14.874;2023-09-07T01:00:39;99384.59;;;16.20;95.27
66547;BME280;53400;50.364;14.874;2023-09-07T01:03:06;99376.66;;;16.03;94.11
66547;BME280;53400;50.364;14.874;2023-09-07T01:05:37;99376.41;;;16.04;94.68
66547;BME280;53400;50.364;14.874;2023-09-07T01:08:11;99381.31;;;16.13;95.48
66547;BME280;53400;50.364;14.874;2023-09-07T01:10:40;99374.53;;;16.05;95.70
66547;BME280;53400;50.364;14.874;2023-09-07T01:13:07;99384.56;;;16.15;95.03
66547;BME280;53400;50.364;14.874;2023-09-07T01:15:34;99373.38;;;15.96;94.39
66547;BME280;53400;50.364;14.874;2023-09-07T01:18:01;99377.75;;;16.02;94.25
66547;BME280;53400;50.364;14.874;2023-09-07T01:20:30;99381.28;;;16.08;95.05
66547;BME280;53400;50.364;14.874;2023-09-07T01:23:00;99374.47;;;15.95;95.12
66547;BME280;53400;50.364;14.874;2023-09-07T01:25:27;99379.03;;;15.89;94.60
66547;BME280;53400;50.364;14.874;2023-09-07T01:27:55;99382.69;;;15.73;94.20
66547;BME280;53400;50.364;14.874;2023-09-07T01:30:21;99376.81;;;15.81;94.89
66547;BME280;53400;50.364;14.874;2023-09-07T01:32:48;99372.59;;;15.63;95.31
66547;BME280;53400;50.364;14.874;2023-09-07T01:35:16;99384.53;;;15.67;95.58
66547;BME280;53400;50.364;14.874;2023-09-07T01:37:44;99376.13;;;15.64;94.91
66547;BME280;53400;50.364;14.874;2023-09-07T01:40:12;99373.41;;;15.64;94.77
66547;BME280;53400;50.364;14.874;2023-09-07T01:42:39;99380.72;;;15.63;95.27
66547;BME280;53400;50.364;14.874;2023-09-07T01:45:06;99382.03;;;15.55;96.05
66547;BME280;53400;50.364;14.874;2023-09-07T01:47:33;99387.59;;;15.44;96.54
66547;BME280;53400;50.364;14.874;2023-09-07T01:49:59;99384.44;;;15.20;96.41
66547;BME280;53400;50.364;14.874;2023-09-07T01:52:26;99383.19;;;15.32;96.89
66547;BME280;53400;50.364;14.874;2023-09-07T01:54:52;99384.09;;;15.48;94.92
66547;BME280;53400;50.364;14.874;2023-09-07T01:57:21;99383.00;;;15.44;95.50
66547;BME280;53400;50.364;14.874;2023-09-07T01:59:47;99380.53;;;15.37;93.77
66547;BME280;53400;50.364;14.874;2023-09-07T02:02:14;99382.31;;;15.64;95.29
66547;BME280;53400;50.364;14.874;2023-09-07T02:04:41;99386.47;;;15.72;94.64
66547;BME280;53400;50.364;14.874;2023-09-07T02:07:09;99378.19;;;15.51;94.16
66547;BME280;53400;50.364;14.874;2023-09-07T02:09:36;99385.38;;;15.68;94.29
66547;BME280;53400;50.364;14.874;2023-09-07T02:12:03;99385.09;;;15.05;97.33
66547;BME280;53400;50.364;14.874;2023-09-07T02:14:32;99380.56;;;15.43;95.30
66547;BME280;53400;50.364;14.874;2023-09-07T02:16:58;99380.56;;;15.43;94.35
66547;BME280;53400;50.364;14.874;2023-09-07T02:19:25;99380.56;;;15.43;94.87
66547;BME280;53400;50.364;14.874;2023-09-07T02:21:52;99384.59;;;15.40;94.31
66547;BME280;53400;50.364;14.874;2023-09-07T02:24:18;99377.72;;;14.68;98.40
66547;BME280;53400;50.364;14.874;2023-09-07T02:26:45;99387.88;;;15.15;96.87
66547;BME280;53400;50.364;14.874;2023-09-07T02:29:12;99387.31;;;15.40;95.23
66547;BME280;53400;50.364;14.874;2023-09-07T02:31:40;99388.34;;;15.34;94.92
66547;BME280;53400;50.364;14.874;2023-09-07T02:34:07;99381.66;;;15.14;95.18
66547;BME280;53400;50.364;14.874;2023-09-07T02:36:34;99391.34;;;15.10;94.69
66547;BME280;53400;50.364;14.874;2023-09-07T02:39:03;99393.91;;;14.95;96.78
66547;BME280;53400;50.364;14.874;2023-09-07T02:41:31;99402.38;;;15.09;96.89
66547;BME280;53400;50.364;14.874;2023-09-07T02:43:57;99386.97;;;15.31;95.82
66547;BME280;53400;50.364;14.874;2023-09-07T02:46:24;99398.78;;;15.25;95.75
66547;BME280;53400;50.364;14.874;2023-09-07T02:48:51;99390.38;;;15.22;95.92
66547;BME280;53400;50.364;14.874;2023-09-07T02:51:20;99398.38;;;15.11;95.87
66547;BME280;53400;50.364;14.874;2023-09-07T02:53:47;99396.47;;;15.12;96.48
66547;BME280;53400;50.364;14.874;2023-09-07T02:56:13;99395.94;;;15.10;96.51
66547;BME280;53400;50.364;14.874;2023-09-07T02:58:40;99390.84;;;14.86;96.62
66547;BME280;53400;50.364;14.874;2023-09-07T03:01:07;99389.16;;;15.07;97.07
66547;BME280;53400;50.364;14.874;2023-09-07T03:03:37;99389.16;;;15.07;96.50
66547;BME280;53400;50.364;14.874;2023-09-07T03:06:12;99399.59;;;14.99;95.93
66547;BME280;53400;50.364;14.874;2023-09-07T03:08:39;99401.69;;;14.91;96.82
66547;BME280;53400;50.364;14.874;2023-09-07T03:11:06;99396.53;;;14.90;97.03
66547;BME280;53400;50.364;14.874;2023-09-07T03:13:33;99389.47;;;14.84;97.14
66547;BME280;53400;50.364;14.874;2023-09-07T03:16:01;99391.16;;;14.90;96.96
66547;BME280;53400;50.364;14.874;2023-09-07T03:18:28;99390.03;;;14.86;96.37
66547;BME280;53400;50.364;14.874;2023-09-07T03:20:55;99380.84;;;14.60;96.94
66547;BME280;53400;50.364;14.874;2023-09-07T03:23:25;99390.75;;;14.76;97.15
66547;BME280;53400;50.364;14.874;2023-09-07T03:25:52;99381.22;;;14.68;97.60
66547;BME280;53400;50.364;14.874;2023-09-07T03:28:18;99386.09;;;14.72;96.58
66547;BME280;53400;50.364;14.874;2023-09-07T03:30:44;99394.34;;;14.87;95.64
66547;BME280;53400;50.364;14.874;2023-09-07T03:33:11;99383.63;;;14.92;95.79
66547;BME280;53400;50.364;14.874;2023-09-07T03:35:38;99393.19;;;15.05;95.16
66547;BME280;53400;50.364;14.874;2023-09-07T03:38:04;99392.81;;;14.96;94.74
66547;BME280;53400;50.364;14.874;2023-09-07T03:40:32;99386.41;;;14.75;95.44
66547;BME280;53400;50.364;14.874;2023-09-07T03:42:58;99390.84;;;14.86;95.37
66547;BME280;53400;50.364;14.874;2023-09-07T03:45:25;99393.41;;;14.98;95.26
66547;BME280;53400;50.364;14.874;2023-09-07T03:47:51;99393.75;;;15.07;94.76
66547;BME280;53400;50.364;14.874;2023-09-07T03:50:18;99394.81;;;15.06;93.32
66547;BME280;53400;50.364;14.874;2023-09-07T03:52:45;99388.06;;;14.76;94.51
66547;BME280;53400;50.364;14.874;2023-09-07T03:55:12;99389.53;;;14.89;94.63
66547;BME280;53400;50.364;14.874;2023-09-07T03:57:39;99393.28;;;14.88;94.91
66547;BME280;53400;50.364;14.874;2023-09-07T04:00:07;99386.72;;;14.79;94.22
66547;BME280;53400;50.364;14.874;2023-09-07T04:02:34;99394.91;;;14.89;95.95
66547;BME280;53400;50.364;14.874;2023-09-07T04:05:01;99399.31;;;15.00;94.91
66547;BME280;53400;50.364;14.874;2023-09-07T04:07:31;99393.69;;;15.02;94.76
66547;BME280;53400;50.364;14.874;2023-09-07T04:09:58;99393.25;;;14.83;94.33
66547;BME280;53400;50.364;14.874;2023-09-07T04:12:24;99393.47;;;14.81;94.92
66547;BME280;53400;50.364;14.874;2023-09-07T04:14:52;99400.03;;;14.90;95.05
66547;BME280;53400;50.364;14.874;2023-09-07T04:17:19;99398.13;;;14.86;95.12
66547;BME280;53400;50.364;14.874;2023-09-07T04:19:46;99395.41;;;14.59;94.20
66547;BME280;53400;50.364;14.874;2023-09-07T04:22:12;99394.91;;;14.62;94.32
66547;BME280;53400;50.364;14.874;2023-09-07T04:24:39;99394.78;;;14.52;94.72
66547;BME280;53400;50.364;14.874;2023-09-07T04:27:06;99394.81;;;14.57;95.40
66547;BME280;53400;50.364;14.874;2023-09-07T04:29:33;99392.69;;;14.37;94.39
66547;BME280;53400;50.364;14.874;2023-09-07T04:32:01;99393.63;;;14.26;97.30
66547;BME280;53400;50.364;14.874;2023-09-07T04:34:28;99388.84;;;14.33;96.02
66547;BME280;53400;50.364;14.874;2023-09-07T04:36:54;99394.25;;;14.33;96.19
66547;BME280;53400;50.364;14.874;2023-09-07T04:39:21;99386.13;;;14.28;96.88
66547;BME280;53400;50.364;14.874;2023-09-07T04:41:47;99399.09;;;14.31;96.29
66547;BME280;53400;50.364;14.874;2023-09-07T04:44:14;99398.63;;;14.39;96.62
66547;BME280;53400;50.364;14.874;2023-09-07T04:46:40;99402.59;;;14.31;96.22
66547;BME280;53400;50.364;14.874;2023-09-07T04:49:08;99404.59;;;14.41;96.54
66547;BME280;53400;50.364;14.874;2023-09-07T04:51:35;99404.41;;;14.48;96.13
66547;BME280;53400;50.364;14.874;2023-09-07T04:54:01;99401.00;;;14.52;95.72
66547;BME280;53400;50.364;14.874;2023-09-07T04:56:28;99405.09;;;14.60;96.21
66547;BME280;53400;50.364;14.874;2023-09-07T04:58:55;99402.44;;;14.87;98.82
66547;BME280;53400;50.364;14.874;2023-09-07T05:01:21;99413.16;;;15.04;95.49
66547;BME280;53400;50.364;14.874;2023-09-07T05:03:48;99407.63;;;15.21;95.14
66547;BME280;53400;50.364;14.874;2023-09-07T05:06:18;99413.09;;;15.26;93.31
66547;BME280;53400;50.364;14.874;2023-09-07T05:08:45;99411.78;;;15.66;93.58
66547;BME280;53400;50.364;14.874;2023-09-07T05:11:11;99406.94;;;16.05;92.09
66547;BME280;53400;50.364;14.874;2023-09-07T05:13:38;99415.91;;;16.11;91.32
66547;BME280;53400;50.364;14.874;2023-09-07T05:16:04;99410.34;;;16.43;90.27
66547;BME280;53400;50.364;14.874;2023-09-07T05:18:31;99416.88;;;16.52;88.72
66547;BME280;53400;50.364;14.874;2023-09-07T05:20:57;99417.03;;;16.25;87.13
66547;BME280;53400;50.364;14.874;2023-09-07T05:23:25;99419.50;;;16.26;89.10
66547;BME280;53400;50.364;14.874;2023-09-07T05:25:54;99415.25;;;16.46;89.17
66547;BME280;53400;50.364;14.874;2023-09-07T05:28:22;99411.75;;;16.50;86.90
66547;BME280;53400;50.364;14.874;2023-09-07T05:30:48;99419.19;;;16.23;88.74
66547;BME280;53400;50.364;14.874;2023-09-07T05:33:16;99419.28;;;16.38;87.45
66547;BME280;53400;50.364;14.874;2023-09-07T05:35:43;99414.03;;;16.79;87.38
66547;BME280;53400;50.364;14.874;2023-09-07T05:38:09;99418.72;;;17.09;84.54
66547;BME280;53400;50.364;14.874;2023-09-07T05:40:39;99416.84;;;17.20;85.75
66547;BME280;53400;50.364;14.874;2023-09-07T05:43:06;99425.53;;;17.63;83.73
66547;BME280;53400;50.364;14.874;2023-09-07T05:45:34;99422.00;;;17.62;82.47
66547;BME280;53400;50.364;14.874;2023-09-07T05:48:03;99416.25;;;16.92;85.93
66547;BME280;53400;50.364;14.874;2023-09-07T05:50:29;99422.56;;;17.44;83.67
66547;BME280;53400;50.364;14.874;2023-09-07T05:52:56;99418.47;;;17.26;85.47
66547;BME280;53400;50.364;14.874;2023-09-07T05:55:22;99420.38;;;17.61;83.25
66547;BME280;53400;50.364;14.874;2023-09-07T05:57:50;99426.56;;;17.16;84.61
66547;BME280;53400;50.364;14.874;2023-09-07T06:00:17;99430.41;;;17.66;85.25
66547;BME280;53400;50.364;14.874;2023-09-07T06:02:45;99424.44;;;18.05;82.43
66547;BME280;53400;50.364;14.874;2023-09-07T06:05:12;99432.22;;;18.32;80.83
66547;BME280;53400;50.364;14.874;2023-09-07T06:07:39;99432.75;;;18.29;80.59
66547;BME280;53400;50.364;14.874;2023-09-07T06:10:06;99431.38;;;18.37;80.61
66547;BME280;53400;50.364;14.874;2023-09-07T06:12:36;99429.72;;;18.51;80.62
66547;BME280;53400;50.364;14.874;2023-09-07T06:15:06;99439.75;;;18.40;79.97
66547;BME280;53400;50.364;14.874;2023-09-07T06:17:33;99442.22;;;18.37;82.74
66547;BME280;53400;50.364;14.874;2023-09-07T06:19:59;99438.59;;;18.62;80.17
66547;BME280;53400;50.364;14.874;2023-09-07T06:22:31;99427.41;;;17.98;83.42
66547;BME280;53400;50.364;14.874;2023-09-07T06:25:04;99430.91;;;18.14;82.13
66547;BME280;53400;50.364;14.874;2023-09-07T06:27:31;99431.72;;;17.07;86.76
66547;BME280;53400;50.364;14.874;2023-09-07T06:29:58;99434.47;;;17.99;85.94
66547;BME280;53400;50.364;14.874;2023-09-07T06:32:26;99439.66;;;18.81;82.01
66547;BME280;53400;50.364;14.874;2023-09-07T06:34:55;99442.06;;;18.77;80.24
66547;BME280;53400;50.364;14.874;2023-09-07T06:37:24;99443.16;;;18.82;79.44
66547;BME280;53400;50.364;14.874;2023-09-07T06:39:55;99441.81;;;18.84;80.05
66547;BME280;53400;50.364;14.874;2023-09-07T06:42:22;99442.53;;;18.95;79.26
66547;BME280;53400;50.364;14.874;2023-09-07T06:44:49;99443.94;;;19.32;78.76
66547;BME280;53400;50.364;14.874;2023-09-07T06:47:17;99443.03;;;19.46;77.64
66547;BME280;53400;50.364;14.874;2023-09-07T06:49:45;99442.63;;;19.63;77.48
66547;BME280;53400;50.364;14.874;2023-09-07T06:52:12;99453.00;;;19.56;77.66
66547;BME280;53400;50.364;14.874;2023-09-07T06:54:42;99450.78;;;18.69;80.19
66547;BME280;53400;50.364;14.874;2023-09-07T06:57:08;99439.22;;;18.43;82.98
66547;BME280;53400;50.364;14.874;2023-09-07T06:59:41;99446.03;;;19.00;80.68
66547;BME280;53400;50.364;14.874;2023-09-07T07:02:17;99442.78;;;18.28;83.10
66547;BME280;53400;50.364;14.874;2023-09-07T07:04:50;99444.56;;;18.58;81.76
66547;BME280;53400;50.364;14.874;2023-09-07T07:07:40;99448.66;;;19.16;79.05
66547;BME280;53400;50.364;14.874;2023-09-07T07:10:07;99448.22;;;18.98;80.41
66547;BME280;53400;50.364;14.874;2023-09-07T07:12:34;99446.69;;;18.82;80.50
66547;BME280;53400;50.364;14.874;2023-09-07T07:15:00;99447.97;;;19.39;78.94
66547;BME280;53400;50.364;14.874;2023-09-07T07:17:27;99450.38;;;19.41;79.18
66547;BME280;53400;50.364;14.874;2023-09-07T07:19:55;99442.75;;;19.09;78.20
66547;BME280;53400;50.364;14.874;2023-09-07T07:22:21;99446.50;;;19.18;78.20
66547;BME280;53400;50.364;14.874;2023-09-07T07:24:47;99448.31;;;19.28;78.04
66547;BME280;53400;50.364;14.874;2023-09-07T07:27:16;99447.06;;;19.54;77.29
66547;BME280;53400;50.364;14.874;2023-09-07T07:29:42;99449.25;;;19.08;79.06
66547;BME280;53400;50.364;14.874;2023-09-07T07:32:10;99449.38;;;19.32;78.82
66547;BME280;53400;50.364;14.874;2023-09-07T07:34:36;99446.94;;;19.30;79.91
66547;BME280;53400;50.364;14.874;2023-09-07T07:37:04;99451.53;;;19.35;77.70
66547;BME280;53400;50.364;14.874;2023-09-07T07:39:30;99453.66;;;18.98;79.52
66547;BME280;53400;50.364;14.874;2023-09-07T07:41:56;99450.25;;;19.61;79.08
66547;BME280;53400;50.364;14.874;2023-09-07T07:44:22;99457.97;;;20.12;77.41
66547;BME280;53400;50.364;14.874;2023-09-07T07:46:48;99453.72;;;20.30;76.45
66547;BME280;53400;50.364;14.874;2023-09-07T07:49:14;99461.03;;;20.06;78.56
66547;BME280;53400;50.364;14.874;2023-09-07T07:51:41;99460.25;;;20.00;76.39
66547;BME280;53400;50.364;14.874;2023-09-07T07:54:09;99468.09;;;20.07;75.78
66547;BME280;53400;50.364;14.874;2023-09-07T07:56:35;99468.84;;;20.12;74.83
66547;BME280;53400;50.364;14.874;2023-09-07T07:59:02;99463.91;;;19.90;77.16
66547;BME280;53400;50.364;14.874;2023-09-07T08:01:29;99455.38;;;20.26;77.16
66547;BME280;53400;50.364;14.874;2023-09-07T08:03:56;99464.78;;;20.39;75.58
66547;BME280;53400;50.364;14.874;2023-09-07T08:06:22;99461.91;;;20.54;75.73
66547;BME280;53400;50.364;14.874;2023-09-07T08:08:49;99466.81;;;20.76;75.25
66547;BME280;53400;50.364;14.874;2023-09-07T08:11:17;99465.47;;;20.74;73.40
66547;BME280;53400;50.364;14.874;2023-09-07T08:13:47;99461.38;;;20.95;74.23
66547;BME280;53400;50.364;14.874;2023-09-07T08:16:13;99466.53;;;21.35;72.18
66547;BME280;53400;50.364;14.874;2023-09-07T08:18:40;99455.81;;;21.24;72.05
66547;BME280;53400;50.364;14.874;2023-09-07T08:21:06;99468.09;;;21.22;69.89
66547;BME280;53400;50.364;14.874;2023-09-07T08:23:33;99472.75;;;21.21;72.66
66547;BME280;53400;50.364;14.874;2023-09-07T08:26:00;99453.38;;;21.23;71.68
66547;BME280;53400;50.364;14.874;2023-09-07T08:28:28;99454.66;;;21.63;70.91
66547;BME280;53400;50.364;14.874;2023-09-07T08:30:55;99451.53;;;21.89;68.71
66547;BME280;53400;50.364;14.874;2023-09-07T08:33:24;99449.38;;;22.18;66.88
66547;BME280;53400;50.364;14.874;2023-09-07T08:35:56;99461.59;;;22.21;64.20
66547;BME280;53400;50.364;14.874;2023-09-07T08:38:23;99464.34;;;22.35;63.22
66547;BME280;53400;50.364;14.874;2023-09-07T08:40:54;99450.09;;;22.38;63.40
66547;BME280;53400;50.364;14.874;2023-09-07T08:43:21;99459.19;;;22.75;62.04
66547;BME280;53400;50.364;14.874;2023-09-07T08:45:51;99449.16;;;22.70;63.29
66547;BME280;53400;50.364;14.874;2023-09-07T08:48:26;99457.88;;;22.86;61.95
66547;BME280;53400;50.364;14.874;2023-09-07T08:50:54;99451.81;;;22.89;62.33
66547;BME280;53400;50.364;14.874;2023-09-07T08:53:21;99454.41;;;23.08;63.61
66547;BME280;53400;50.364;14.874;2023-09-07T08:55:48;99446.28;;;23.17;59.76
66547;BME280;53400;50.364;14.874;2023-09-07T08:58:14;99442.50;;;23.04;59.75
66547;BME280;53400;50.364;14.874;2023-09-07T09:00:41;99445.63;;;22.97;61.31
66547;BME280;53400;50.364;14.874;2023-09-07T09:03:10;99450.06;;;22.93;61.96
66547;BME280;53400;50.364;14.874;2023-09-07T09:05:38;99452.59;;;23.40;60.00
66547;BME280;53400;50.364;14.874;2023-09-07T09:08:06;99452.31;;;23.27;60.57
66547;BME280;53400;50.364;14.874;2023-09-07T09:10:31;99449.31;;;23.15;61.79
66547;BME280;53400;50.364;14.874;2023-09-07T09:12:58;99460.66;;;23.67;61.50
66547;BME280;53400;50.364;14.874;2023-09-07T09:15:26;99457.69;;;24.00;61.07
66547;BME280;53400;50.364;14.874;2023-09-07T09:17:55;99456.72;;;23.73;60.45
66547;BME280;53400;50.364;14.874;2023-09-07T09:20:24;99443.31;;;23.27;61.14
66547;BME280;53400;50.364;14.874;2023-09-07T09:22:52;99441.22;;;23.69;59.43
66547;BME280;53400;50.364;14.874;2023-09-07T09:25:18;99450.91;;;23.97;58.37
66547;BME280;53400;50.364;14.874;2023-09-07T09:27:44;99445.00;;;23.14;60.64
66547;BME280;53400;50.364;14.874;2023-09-07T09:30:11;99449.03;;;23.17;61.78
66547;BME280;53400;50.364;14.874;2023-09-07T09:32:39;99448.16;;;23.07;62.78
66547;BME280;53400;50.364;14.874;2023-09-07T09:35:08;99444.63;;;23.52;61.90
66547;BME280;53400;50.364;14.874;2023-09-07T09:37:44;99448.94;;;24.20;58.05
66547;BME280;53400;50.364;14.874;2023-09-07T09:40:11;99445.06;;;24.53;57.64
66547;BME280;53400;50.364;14.874;2023-09-07T09:42:39;99442.69;;;24.68;57.35
66547;BME280;53400;50.364;14.874;2023-09-07T09:45:07;99446.13;;;25.00;58.17
66547;BME280;53400;50.364;14.874;2023-09-07T09:47:38;99440.16;;;25.07;56.79
66547;BME280;53400;50.364;14.874;2023-09-07T09:50:06;99441.31;;;25.32;55.02
66547;BME280;53400;50.364;14.874;2023-09-07T09:52:33;99431.59;;;24.82;56.08
66547;BME280;53400;50.364;14.874;2023-09-07T09:55:02;99427.41;;;24.85;56.33
66547;BME280;53400;50.364;14.874;2023-09-07T09:57:31;99434.38;;;25.08;55.51
66547;BME280;53400;50.364;14.874;2023-09-07T09:59:58;99427.47;;;25.28;53.92
66547;BME280;53400;50.364;14.874;2023-09-07T10:02:25;99421.19;;;25.19;54.96
66547;BME280;53400;50.364;14.874;2023-09-07T10:04:52;99416.63;;;25.75;53.13
66547;BME280;53400;50.364;14.874;2023-09-07T10:07:19;99416.97;;;25.48;54.71
66547;BME280;53400;50.364;14.874;2023-09-07T10:09:45;99420.28;;;24.66;54.74
66547;BME280;53400;50.364;14.874;2023-09-07T10:12:13;99422.25;;;24.75;56.61
66547;BME280;53400;50.364;14.874;2023-09-07T10:14:39;99407.75;;;24.34;56.07
66547;BME280;53400;50.364;14.874;2023-09-07T10:17:06;99419.00;;;24.72;55.03
66547;BME280;53400;50.364;14.874;2023-09-07T10:19:32;99414.34;;;24.73;54.08
66547;BME280;53400;50.364;14.874;2023-09-07T10:21:59;99412.59;;;24.29;54.80
66547;BME280;53400;50.364;14.874;2023-09-07T10:24:26;99411.44;;;24.69;55.07
66547;BME280;53400;50.364;14.874;2023-09-07T10:26:57;99415.97;;;24.83;54.35
66547;BME280;53400;50.364;14.874;2023-09-07T10:29:24;99410.78;;;25.77;55.52
66547;BME280;53400;50.364;14.874;2023-09-07T10:31:51;99410.47;;;25.78;54.27
66547;BME280;53400;50.364;14.874;2023-09-07T10:34:17;99419.88;;;25.34;53.79
66547;BME280;53400;50.364;14.874;2023-09-07T10:36:44;99411.31;;;25.01;54.27
66547;BME280;53400;50.364;14.874;2023-09-07T10:39:09;99413.41;;;25.12;52.28
66547;BME280;53400;50.364;14.874;2023-09-07T10:41:42;99408.09;;;24.99;53.10
66547;BME280;53400;50.364;14.874;2023-09-07T10:44:09;99406.16;;;25.60;53.01
66547;BME280;53400;50.364;14.874;2023-09-07T10:46:38;99396.59;;;25.75;53.51
66547;BME280;53400;50.364;14.874;2023-09-07T10:49:08;99406.44;;;25.76;53.46
66547;BME280;53400;50.364;14.874;2023-09-07T10:51:41;99407.69;;;25.96;52.34
66547;BME280;53400;50.364;14.874;2023-09-07T10:54:15;99401.97;;;25.62;51.99
66547;BME280;53400;50.364;14.874;2023-09-07T10:56:44;99410.53;;;25.35;51.43
66547;BME280;53400;50.364;14.874;2023-09-07T10:59:10;99409.91;;;25.21;53.08
66547;BME280;53400;50.364;14.874;2023-09-07T11:01:38;99398.44;;;25.53;53.38
66547;BME280;53400;50.364;14.874;2023-09-07T11:04:04;99393.50;;;25.94;51.31
66547;BME280;53400;50.364;14.874;2023-09-07T11:06:31;99394.72;;;25.32;52.08
66547;BME280;53400;50.364;14.874;2023-09-07T11:08:59;99399.06;;;25.50;52.01
66547;BME280;53400;50.364;14.874;2023-09-07T11:11:26;99391.72;;;25.80;51.44
66547;BME280;53400;50.364;14.874;2023-09-07T11:13:52;99395.44;;;25.93;50.86
66547;BME280;53400;50.364;14.874;2023-09-07T11:16:18;99390.34;;;25.57;50.82
66547;BME280;53400;50.364;14.874;2023-09-07T11:18:46;99391.81;;;25.28;48.94
66547;BME280;53400;50.364;14.874;2023-09-07T11:21:12;99384.72;;;25.53;51.79
66547;BME280;53400;50.364;14.874;2023-09-07T11:23:38;99390.72;;;26.02;49.71
66547;BME280;53400;50.364;14.874;2023-09-07T11:26:05;99382.59;;;26.15;50.10
66547;BME280;53400;50.364;14.874;2023-09-07T11:28:31;99390.56;;;25.99;50.02
66547;BME280;53400;50.364;14.874;2023-09-07T11:30:58;99383.31;;;26.03;47.25
66547;BME280;53400;50.364;14.874;2023-09-07T11:33:24;99375.38;;;26.01;46.77
66547;BME280;53400;50.364;14.874;2023-09-07T11:35:52;99382.88;;;26.22;46.92
66547;BME280;53400;50.364;14.874;2023-09-07T11:38:21;99376.41;;;26.26;46.58
66547;BME280;53400;50.364;14.874;2023-09-07T11:40:48;99387.78;;;26.46;46.73
66547;BME280;53400;50.364;14.874;2023-09-07T11:43:15;99368.22;;;26.18;46.89
66547;BME280;53400;50.364;14.874;2023-09-07T11:45:42;99390.88;;;26.06;48.08
66547;BME280;53400;50.364;14.874;2023-09-07T11:48:08;99382.38;;;25.90;48.94
66547;BME280;53400;50.364;14.874;2023-09-07T11:50:35;99377.66;;;25.99;48.43
66547;BME280;53400;50.364;14.874;2023-09-07T11:53:03;99383.84;;;25.88;47.46
66547;BME280;53400;50.364;14.874;2023-09-07T11:55:29;99379.09;;;26.05;47.42
66547;BME280;53400;50.364;14.874;2023-09-07T11:57:55;99378.38;;;26.56;48.38
66547;BME280;53400;50.364;14.874;2023-09-07T12:00:22;99378.72;;;26.45;46.93
66547;BME280;53400;50.364;14.874;2023-09-07T12:02:49;99370.00;;;26.43;47.85
66547;BME280;53400;50.364;14.874;2023-09-07T12:05:15;99375.31;;;26.57;48.25
66547;BME280;53400;50.364;14.874;2023-09-07T12:07:42;99382.66;;;26.36;46.29
66547;BME280;53400;50.364;14.874;2023-09-07T12:10:12;99364.53;;;26.94;46.79
66547;BME280;53400;50.364;14.874;2023-09-07T12:12:39;99367.47;;;26.89;47.71
66547;BME280;53400;50.364;14.874;2023-09-07T12:15:06;99357.53;;;27.17;47.34
66547;BME280;53400;50.364;14.874;2023-09-07T12:17:33;99363.78;;;26.85;48.13
66547;BME280;53400;50.364;14.874;2023-09-07T12:20:00;99362.63;;;26.65;46.84
66547;BME280;53400;50.364;14.874;2023-09-07T12:22:26;99356.94;;;26.40;47.72
66547;BME280;53400;50.364;14.874;2023-09-07T12:24:52;99358.03;;;26.48;48.06
66547;BME280;53400;50.364;14.874;2023-09-07T12:27:20;99360.75;;;26.77;46.87
66547;BME280;53400;50.364;14.874;2023-09-07T12:29:46;99352.75;;;27.27;45.99
66547;BME280;53400;50.364;14.874;2023-09-07T12:32:12;99358.59;;;27.58;44.45
66547;BME280;53400;50.364;14.874;2023-09-07T12:34:38;99357.06;;;27.36;45.91
66547;BME280;53400;50.364;14.874;2023-09-07T12:37:04;99354.28;;;27.24;44.35
66547;BME280;53400;50.364;14.874;2023-09-07T12:39:31;99353.53;;;26.43;45.54
66547;BME280;53400;50.364;14.874;2023-09-07T12:41:57;99351.38;;;26.58;47.47
66547;BME280;53400;50.364;14.874;2023-09-07T12:44:24;99344.31;;;26.69;47.52
66547;BME280;53400;50.364;14.874;2023-09-07T12:46:50;99334.06;;;26.78;45.35
66547;BME280;53400;50.364;14.874;2023-09-07T12:49:16;99340.59;;;27.15;46.08
66547;BME280;53400;50.364;14.874;2023-09-07T12:51:42;99341.06;;;27.63;43.68